createdAt,value
2024-05-09T00:00:48.361Z,15.78
2024-05-09T00:03:51.009Z,15.83
2024-05-09T00:06:53.840Z,15.72
2024-05-09T00:09:56.114Z,15.72
2024-05-09T00:12:58.281Z,15.76
2024-05-09T00:16:01.083Z,15.77
2024-05-09T00:19:04.107Z,15.73
2024-05-09T00:22:06.444Z,15.69
2024-05-09T00:25:09.061Z,15.67
2024-05-09T00:28:12.720Z,15.73
2024-05-09T00:31:15.201Z,15.75
2024-05-09T00:34:18.061Z,15.69
2024-05-09T00:37:20.818Z,15.68
2024-05-09T00:40:34.720Z,15.65
2024-05-09T00:43:51.180Z,15.70
2024-05-09T00:46:58.582Z,15.75
2024-05-09T00:50:04.179Z,15.73
2024-05-09T00:53:10.544Z,15.56
2024-05-09T00:56:13.595Z,15.70
2024-05-09T00:59:16.582Z,15.78
2024-05-09T01:02:19.360Z,15.71
2024-05-09T01:05:24.043Z,15.77
2024-05-09T01:08:29.456Z,15.73
2024-05-09T01:11:40.869Z,15.67
2024-05-09T01:14:52.837Z,15.67
2024-05-09T01:17:56.964Z,15.70
2024-05-09T01:21:00.743Z,15.67
2024-05-09T01:24:06.337Z,15.63
2024-05-09T01:27:08.908Z,15.60
2024-05-09T01:30:17.275Z,15.46
2024-05-09T01:33:29.060Z,15.58
2024-05-09T01:36:32.954Z,15.53
2024-05-09T01:39:35.655Z,15.63
2024-05-09T01:42:38.331Z,15.54
2024-05-09T01:45:48.629Z,15.53
2024-05-09T01:48:51.041Z,15.48
2024-05-09T01:51:53.332Z,15.57
2024-05-09T01:54:57.966Z,15.51
2024-05-09T01:58:00.115Z,15.41
2024-05-09T02:01:03.159Z,15.38
2024-05-09T02:04:05.751Z,15.40
2024-05-09T02:07:08.305Z,15.38
2024-05-09T02:10:16.448Z,15.40
2024-05-09T02:13:23.092Z,15.37
2024-05-09T02:16:26.351Z,15.23
2024-05-09T02:19:28.962Z,15.30
2024-05-09T02:22:31.914Z,15.29
2024-05-09T02:25:35.711Z,15.32
2024-05-09T02:28:38.037Z,15.28
2024-05-09T02:31:40.699Z,15.24
2024-05-09T02:34:43.562Z,15.26
2024-05-09T02:37:46.924Z,15.27
2024-05-09T02:40:49.378Z,15.30
2024-05-09T02:43:52.222Z,15.29
2024-05-09T02:46:57.566Z,15.27
2024-05-09T02:49:59.819Z,15.18
2024-05-09T02:53:05.412Z,15.20
2024-05-09T02:56:08.141Z,15.25
2024-05-09T02:59:10.943Z,15.23
2024-05-09T03:02:13.889Z,15.13
2024-05-09T03:05:16.520Z,15.07
2024-05-09T03:08:19.224Z,15.05
2024-05-09T03:11:27.467Z,15.03
2024-05-09T03:14:30.260Z,15.11
2024-05-09T03:17:32.964Z,15.13
2024-05-09T03:20:36.845Z,14.99
2024-05-09T03:23:44.321Z,15.05
2024-05-09T03:26:48.534Z,14.95
2024-05-09T03:29:55.121Z,14.95
2024-05-09T03:32:59.908Z,14.91
2024-05-09T03:36:11.299Z,14.97
2024-05-09T03:39:14.690Z,14.96
2024-05-09T03:42:20.271Z,15.02
2024-05-09T03:45:25.040Z,14.91
2024-05-09T03:48:27.655Z,14.99
2024-05-09T03:51:30.359Z,14.97
2024-05-09T03:54:36.072Z,14.86
2024-05-09T03:57:38.852Z,14.92
2024-05-09T04:00:42.433Z,14.99
2024-05-09T04:03:45.384Z,15.04
2024-05-09T04:06:48.729Z,15.08
2024-05-09T04:09:53.883Z,15.03
2024-05-09T04:12:56.597Z,15.08
2024-05-09T04:15:58.840Z,15.20
2024-05-09T04:19:02.592Z,15.20
2024-05-09T04:22:07.487Z,15.30
2024-05-09T04:25:19.234Z,15.34
2024-05-09T04:28:21.709Z,15.33
2024-05-09T04:31:24.488Z,15.28
2024-05-09T04:34:27.801Z,15.28
2024-05-09T04:37:30.822Z,15.30
2024-05-09T04:40:35.958Z,15.19
2024-05-09T04:43:42.944Z,15.24
2024-05-09T04:46:49.349Z,15.30
2024-05-09T04:49:52.055Z,15.33
2024-05-09T04:52:59.455Z,15.06
2024-05-09T04:56:02.738Z,15.07
2024-05-09T04:59:05.985Z,15.16
2024-05-09T05:02:11.529Z,15.14
2024-05-09T05:05:16.542Z,15.35
2024-05-09T05:08:19.677Z,15.37
2024-05-09T05:11:23.876Z,15.56
2024-05-09T05:14:26.403Z,15.55
2024-05-09T05:17:31.270Z,15.47
2024-05-09T05:20:34.507Z,15.41
2024-05-09T05:23:37.885Z,15.42
2024-05-09T05:26:45.913Z,15.49
2024-05-09T05:29:48.922Z,15.49
2024-05-09T05:32:51.584Z,15.24
2024-05-09T05:35:57.939Z,15.41
2024-05-09T05:39:02.010Z,15.55
2024-05-09T05:42:04.785Z,15.47
2024-05-09T05:45:09.909Z,15.67
2024-05-09T05:48:18.222Z,15.64
2024-05-09T05:51:27.309Z,15.72
2024-05-09T05:54:36.849Z,15.82
2024-05-09T05:57:39.696Z,15.71
2024-05-09T06:00:46.208Z,15.85
2024-05-09T06:03:49.143Z,15.74
2024-05-09T06:06:53.961Z,15.81
2024-05-09T06:09:59.669Z,15.82
2024-05-09T06:13:11.761Z,15.95
2024-05-09T06:16:44.114Z,15.97
2024-05-09T06:19:53.918Z,15.85
2024-05-09T06:22:57.837Z,15.75
2024-05-09T06:26:15.241Z,15.92
2024-05-09T06:29:22.448Z,16.05
2024-05-09T06:32:36.121Z,15.96
2024-05-09T06:35:40.198Z,15.75
2024-05-09T06:38:49.394Z,15.82
2024-05-09T06:42:00.700Z,15.87
2024-05-09T06:45:06.608Z,16.21
2024-05-09T06:48:10.537Z,16.07
2024-05-09T06:51:16.680Z,16.23
2024-05-09T06:54:24.052Z,16.34
2024-05-09T06:57:33.969Z,16.18
2024-05-09T07:00:41.454Z,16.20
2024-05-09T07:03:48.348Z,16.38
2024-05-09T07:06:58.216Z,16.84
2024-05-09T07:10:07.780Z,17.08
2024-05-09T07:13:29.864Z,19.44
2024-05-09T07:16:33.496Z,20.22
2024-05-09T07:19:37.804Z,21.16
2024-05-09T07:25:58.778Z,20.69
2024-05-09T07:29:04.090Z,20.43
2024-05-09T07:32:07.506Z,22.16
2024-05-09T07:35:15.922Z,20.18
2024-05-09T07:38:19.340Z,19.23
2024-05-09T07:41:37.931Z,17.74
2024-05-09T07:44:46.572Z,17.96
2024-05-09T07:49:13.536Z,17.59
2024-05-09T07:54:18.816Z,17.72
2024-05-09T07:57:22.070Z,17.85
2024-05-09T08:00:31.468Z,17.78
2024-05-09T08:03:35.546Z,17.46
2024-05-09T08:06:39.701Z,17.96
2024-05-09T08:09:43.847Z,18.05
2024-05-09T08:12:50.936Z,17.68
2024-05-09T08:15:57.201Z,17.75
2024-05-09T08:19:00.194Z,17.85
2024-05-09T08:22:07.145Z,17.80
2024-05-09T08:25:13.466Z,17.92
2024-05-09T08:28:30.897Z,18.08
2024-05-09T08:34:58.768Z,18.50
2024-05-09T08:38:10.793Z,18.51
2024-05-09T08:41:14.844Z,18.49
2024-05-09T08:44:22.503Z,18.38
2024-05-09T08:47:32.826Z,18.42
2024-05-09T08:50:40.977Z,18.52
2024-05-09T08:57:26.501Z,18.35
2024-05-09T09:00:36.556Z,18.59
2024-05-09T09:03:44.992Z,18.54
2024-05-09T09:07:03.456Z,18.80
2024-05-09T09:10:25.400Z,18.61
2024-05-09T09:14:02.505Z,18.58
2024-05-09T09:17:19.831Z,18.83
2024-05-09T09:20:29.217Z,18.81
2024-05-09T09:23:41.007Z,18.94
2024-05-09T09:26:45.904Z,18.92
2024-05-09T09:29:51.828Z,18.97
2024-05-09T09:32:57.110Z,19.04
2024-05-09T09:36:03.450Z,19.24
2024-05-09T09:39:09.680Z,19.23
2024-05-09T09:42:17.087Z,19.36
2024-05-09T09:45:20.311Z,19.48
2024-05-09T09:48:23.792Z,19.17
2024-05-09T09:51:27.111Z,18.93
2024-05-09T09:54:32.057Z,19.27
2024-05-09T09:57:50.531Z,19.36
2024-05-09T10:00:59.613Z,19.57
2024-05-09T10:04:07.556Z,19.59
2024-05-09T10:07:20.561Z,19.98
2024-05-09T10:10:32.769Z,19.64
2024-05-09T10:13:45.589Z,19.68
2024-05-09T10:17:27.820Z,19.99
2024-05-09T10:20:40.451Z,19.91
2024-05-09T10:24:00.835Z,20.27
2024-05-09T10:27:10.557Z,19.99
2024-05-09T10:30:29.737Z,20.43
2024-05-09T10:33:49.977Z,20.24
2024-05-09T10:36:56.953Z,20.58
2024-05-09T10:40:02.140Z,20.60
2024-05-09T10:43:06.619Z,20.59
2024-05-09T10:46:10.571Z,20.45
2024-05-09T10:49:18.757Z,20.69
2024-05-09T10:52:24.436Z,21.14
2024-05-09T10:55:28.490Z,21.08
2024-05-09T10:58:31.561Z,20.57
2024-05-09T11:01:40.844Z,20.70
2024-05-09T11:04:46.819Z,21.22
2024-05-09T11:07:53.929Z,21.30
2024-05-09T11:11:00.744Z,21.48
2024-05-09T11:14:13.116Z,21.14
2024-05-09T11:17:17.779Z,21.12
2024-05-09T11:20:29.094Z,21.53
2024-05-09T11:23:35.904Z,21.64
2024-05-09T11:26:41.870Z,21.14
2024-05-09T11:29:47.169Z,21.28
2024-05-09T11:32:50.010Z,21.45
2024-05-09T11:35:53.750Z,21.21
2024-05-09T11:38:59.711Z,21.43
2024-05-09T11:42:10.426Z,21.74
2024-05-09T11:45:16.816Z,21.37
2024-05-09T11:48:19.919Z,21.39
2024-05-09T11:51:22.579Z,21.88
2024-05-09T11:54:25.312Z,21.84
2024-05-09T11:57:29.545Z,21.97
2024-05-09T12:00:37.037Z,21.99
2024-05-09T12:03:42.271Z,21.79
2024-05-09T12:06:46.669Z,21.85
2024-05-09T12:09:49.023Z,21.49
2024-05-09T12:12:51.875Z,21.61
2024-05-09T12:16:16.184Z,21.88
2024-05-09T12:19:22.898Z,21.83
2024-05-09T12:22:33.400Z,21.88
2024-05-09T12:25:55.982Z,21.87
2024-05-09T12:29:02.912Z,21.83
2024-05-09T12:32:09.089Z,21.79
2024-05-09T12:38:32.751Z,21.57
2024-05-09T12:41:37.997Z,21.58
2024-05-09T12:44:48.548Z,22.08
2024-05-09T12:51:21.435Z,22.02
2024-05-09T12:54:24.387Z,22.11
2024-05-09T12:57:28.789Z,21.74
2024-05-09T13:00:34.359Z,22.08
2024-05-09T13:07:18.723Z,21.91
2024-05-09T13:10:31.957Z,21.88
2024-05-09T13:13:36.451Z,21.90
2024-05-09T13:16:50.127Z,21.92
2024-05-09T13:20:03.325Z,22.01
2024-05-09T13:23:08.990Z,22.04
2024-05-09T13:26:12.565Z,21.84
2024-05-09T13:29:15.158Z,21.93
2024-05-09T13:32:20.599Z,22.08
2024-05-09T13:35:23.497Z,21.94
2024-05-09T13:38:26.135Z,22.07
2024-05-09T13:41:28.702Z,22.10
2024-05-09T13:44:32.689Z,22.01
2024-05-09T13:47:37.076Z,22.05
2024-05-09T13:50:43.090Z,22.30
2024-05-09T13:53:45.861Z,22.42
2024-05-09T13:56:52.299Z,22.38
2024-05-09T13:59:54.722Z,22.24
2024-05-09T14:03:01.868Z,22.18
2024-05-09T14:06:04.717Z,22.19
2024-05-09T14:12:27.532Z,22.18
2024-05-09T14:15:38.419Z,22.04
2024-05-09T14:18:45.272Z,22.31
2024-05-09T14:21:55.059Z,22.33
2024-05-09T14:25:02.689Z,22.22
2024-05-09T14:28:06.221Z,22.12
2024-05-09T14:31:11.183Z,22.33
2024-05-09T14:34:14.332Z,22.43
2024-05-09T14:37:20.330Z,22.21
2024-05-09T14:40:36.519Z,22.34
2024-05-09T14:43:49.893Z,22.44
2024-05-09T14:47:05.282Z,22.42
2024-05-09T14:50:16.806Z,22.42
2024-05-09T14:53:27.532Z,22.39
2024-05-09T14:56:30.703Z,22.29
2024-05-09T14:59:34.828Z,22.26
2024-05-09T15:02:38.857Z,22.28
2024-05-09T15:05:41.802Z,22.38
2024-05-09T15:08:44.463Z,22.24
2024-05-09T15:11:49.122Z,22.07
2024-05-09T15:14:53.472Z,22.20
2024-05-09T15:17:57.897Z,22.21
2024-05-09T15:21:03.444Z,22.23
2024-05-09T15:24:07.586Z,22.16
2024-05-09T15:27:10.570Z,22.09
2024-05-09T15:33:18.878Z,22.13
2024-05-09T15:36:22.066Z,22.26
2024-05-09T15:39:41.451Z,22.25
2024-05-09T15:42:44.309Z,22.15
2024-05-09T15:45:50.504Z,21.98
2024-05-09T15:48:54.130Z,21.89
2024-05-09T15:52:05.709Z,22.01
2024-05-09T15:55:10.763Z,22.10
2024-05-09T15:58:15.560Z,22.10
2024-05-09T16:01:21.392Z,21.96
2024-05-09T16:04:24.499Z,22.01
2024-05-09T16:07:27.600Z,21.99
2024-05-09T16:10:36.728Z,21.98
2024-05-09T16:13:40.810Z,21.84
2024-05-09T16:16:44.528Z,21.79
2024-05-09T16:19:48.087Z,21.79
2024-05-09T16:22:52.466Z,21.78
2024-05-09T16:26:00.882Z,21.78
2024-05-09T16:29:03.669Z,21.80
2024-05-09T16:32:09.193Z,21.80
2024-05-09T16:35:12.180Z,21.77
2024-05-09T16:38:17.431Z,21.77
2024-05-09T16:41:20.266Z,21.74
2024-05-09T16:44:24.294Z,21.62
2024-05-09T16:47:26.906Z,21.62
2024-05-09T16:50:34.969Z,21.61
2024-05-09T16:53:39.617Z,21.56
2024-05-09T16:56:42.486Z,21.54
2024-05-09T16:59:46.993Z,21.57
2024-05-09T17:02:50.526Z,21.53
2024-05-09T17:05:53.176Z,21.45
2024-05-09T17:08:59.089Z,21.44
2024-05-09T17:12:05.257Z,21.35
2024-05-09T17:15:14.386Z,21.34
2024-05-09T17:18:18.312Z,21.22
2024-05-09T17:21:24.567Z,21.19
2024-05-09T17:24:31.081Z,21.19
2024-05-09T17:27:34.305Z,21.12
2024-05-09T17:30:47.008Z,21.15
2024-05-09T17:34:14.185Z,21.15
2024-05-09T17:37:18.230Z,21.15
2024-05-09T17:40:31.106Z,21.07
2024-05-09T17:43:43.438Z,21.01
2024-05-09T17:46:48.789Z,20.95
2024-05-09T17:49:54.194Z,20.88
2024-05-09T17:53:00.393Z,20.81
2024-05-09T17:56:03.301Z,20.77
2024-05-09T17:59:07.831Z,20.68
2024-05-09T18:02:14.836Z,20.63
2024-05-09T18:05:18.787Z,20.53
2024-05-09T18:08:23.849Z,20.39
2024-05-09T18:11:27.227Z,20.42
2024-05-09T18:14:29.782Z,20.40
2024-05-09T18:17:34.037Z,20.28
2024-05-09T18:20:44.412Z,20.26
2024-05-09T18:23:52.222Z,20.19
2024-05-09T18:26:55.672Z,20.05
2024-05-09T18:30:00.920Z,19.98
2024-05-09T18:33:08.226Z,19.92
2024-05-09T18:36:12.725Z,19.81
2024-05-09T18:39:17.394Z,19.70
2024-05-09T18:42:19.886Z,19.63
2024-05-09T18:45:22.855Z,19.48
2024-05-09T18:48:25.611Z,19.55
2024-05-09T18:51:28.904Z,19.44
2024-05-09T18:54:32.091Z,19.34
2024-05-09T18:57:34.958Z,19.22
2024-05-09T19:00:40.266Z,19.06
2024-05-09T19:03:46.678Z,18.96
2024-05-09T19:06:50.996Z,19.07
2024-05-09T19:10:03.404Z,18.96
2024-05-09T19:13:13.237Z,18.87
2024-05-09T19:16:19.133Z,18.82
2024-05-09T19:19:25.023Z,18.82
2024-05-09T19:22:28.140Z,18.83
2024-05-09T19:25:30.475Z,18.71
2024-05-09T19:28:34.112Z,18.60
2024-05-09T19:31:36.955Z,18.56
2024-05-09T19:34:40.469Z,18.39
2024-05-09T19:37:43.931Z,18.39
2024-05-09T19:40:50.519Z,18.34
2024-05-09T19:43:53.204Z,18.29
2024-05-09T19:46:56.886Z,18.16
2024-05-09T19:49:59.570Z,18.14
2024-05-09T19:53:03.159Z,18.06
2024-05-09T19:56:05.995Z,18.04
2024-05-09T19:59:08.980Z,18.04
2024-05-09T20:02:14.646Z,17.89
2024-05-09T20:05:17.737Z,17.87
2024-05-09T20:08:25.043Z,17.85
2024-05-09T20:11:28.190Z,17.83
2024-05-09T20:14:31.827Z,17.96
2024-05-09T20:17:35.194Z,17.88
2024-05-09T20:20:41.986Z,17.72
2024-05-09T20:23:48.330Z,17.64
2024-05-09T20:26:51.496Z,17.54
2024-05-09T20:29:54.251Z,17.33
2024-05-09T20:32:58.840Z,17.41
2024-05-09T20:36:02.510Z,17.34
2024-05-09T20:39:05.758Z,17.30
2024-05-09T20:42:13.956Z,17.32
2024-05-09T20:45:16.594Z,17.29
2024-05-09T20:48:19.363Z,17.31
2024-05-09T20:51:22.254Z,17.27
2024-05-09T20:54:24.405Z,17.30
2024-05-09T20:57:29.550Z,17.22
2024-05-09T21:00:39.524Z,17.20
2024-05-09T21:03:45.322Z,17.23
2024-05-09T21:06:47.879Z,17.17
2024-05-09T21:09:52.139Z,17.05
2024-05-09T21:12:54.656Z,17.06
2024-05-09T21:16:01.839Z,17.06
2024-05-09T21:19:04.590Z,16.97
2024-05-09T21:22:07.240Z,16.96
2024-05-09T21:25:09.958Z,16.97
2024-05-09T21:28:12.859Z,16.98
2024-05-09T21:31:15.198Z,17.07
2024-05-09T21:34:18.421Z,17.08
2024-05-09T21:37:20.760Z,16.89
2024-05-09T21:40:33.731Z,16.85
2024-05-09T21:43:38.506Z,16.79
2024-05-09T21:46:40.903Z,16.84
2024-05-09T21:49:43.162Z,17.00
2024-05-09T21:52:50.084Z,17.00
2024-05-09T21:55:55.075Z,16.97
2024-05-09T21:58:58.368Z,16.94
2024-05-09T22:02:00.834Z,16.84
2024-05-09T22:05:03.645Z,16.85
2024-05-09T22:08:06.971Z,16.76
2024-05-09T22:11:10.992Z,16.70
2024-05-09T22:14:14.840Z,16.58
2024-05-09T22:17:17.660Z,16.54
2024-05-09T22:20:26.199Z,16.48
2024-05-09T22:23:38.732Z,16.44
2024-05-09T22:26:41.398Z,16.27
2024-05-09T22:29:44.162Z,16.37
2024-05-09T22:32:47.626Z,16.32
2024-05-09T22:35:51.548Z,16.28
2024-05-09T22:38:53.919Z,16.20
2024-05-09T22:41:56.016Z,16.13
2024-05-09T22:44:58.493Z,16.06
2024-05-09T22:48:01.027Z,16.06
2024-05-09T22:51:03.962Z,16.06
2024-05-09T22:54:06.510Z,15.91
2024-05-09T22:57:09.150Z,15.83
2024-05-09T23:00:15.750Z,15.80
2024-05-09T23:03:24.246Z,15.84
2024-05-09T23:06:27.091Z,15.80
2024-05-09T23:09:29.549Z,15.77
2024-05-09T23:12:33.188Z,15.81
2024-05-09T23:15:40.063Z,15.78
2024-05-09T23:18:42.697Z,15.74
2024-05-09T23:21:45.193Z,15.75
2024-05-09T23:24:50.516Z,15.65
2024-05-09T23:27:57.421Z,15.67
2024-05-09T23:30:59.979Z,15.57
2024-05-09T23:34:02.693Z,15.53
2024-05-09T23:37:06.179Z,15.56
2024-05-09T23:40:18.242Z,15.56
2024-05-09T23:43:22.358Z,15.52
2024-05-09T23:46:25.904Z,15.48
2024-05-09T23:49:30.815Z,15.48
2024-05-09T23:52:33.370Z,15.48
2024-05-09T23:55:39.300Z,15.51
2024-05-09T23:58:42.284Z,15.41
